AirNav   Bose ProFlight Series 2 Headset
 
 1219 users online  

IA55 Myrtue Memorial Hospital Heliport
Harlan, Iowa, USA

GOING TO HARLAN?


FAA INFORMATION EFFECTIVE 02 JANUARY 2020

Location

FAA Identifier: IA55
Lat/Long: 41-38-49.4400N 095-19-33.0900W
41-38.824000N 095-19.551500W
41.6470667,-95.3258583
(estimated)
Elevation: 1231 ft. / 375 m (estimated)
Variation: 06E (1990)
Time zone: UTC -6 (UTC -5 during Daylight Saving Time)
Zip code: 51537

Heliport Operations

Heliport use: Private use, MEDICAL USE.
Activation date: 03/1991
Control tower: no
ARTCC: MINNEAPOLIS CENTER
FSS: FORT DODGE FLIGHT SERVICE STATION
Attendance: CONTINUOUS
Wind indicator: yes
Segmented circle: no

Heliport Communications

WX AWOS-3 at HNR (4 nm S): 118.325 (712-744-4400)
WX AWOS-3 at ADU (18 nm E): 118.075 (712-563-2101)
WX AWOS-3 at AIO (19 nm SE): 127.825 (712-243-2748)

Nearby radio navigation aids

VOR radial/distance  VOR name  Freq  Var
OVRr025/34.2OMAHA VORTAC116.3008E

Heliport Services

Runway Information

Helipad H1

Dimensions: 25 x 25 ft. / 8 x 8 m
Surface: concrete
Latitude: 41-38.824000N
Longitude: 095-19.551500W
Elevation: 1231.0 ft.
Traffic pattern: leftleft

Heliport Ownership and Management from official FAA records

Ownership: Publicly-owned
Owner: SHELBY CO MYRTUE MEM HOSPITAL
1213 GARFIELD AVENUE
HARLAN, IA 51537
Phone 712-755-5161
Manager: CHARLES ASSMAN
1213 GARFIELD AVENUE
HARLAN, IA 51537
Phone 712-755-4400

Additional Remarks

FOR CD CTC OMAHA APCH AT 402-682-4395.

Instrument Procedures

There are no published instrument procedures at IA55.

Some nearby airports with instrument procedures:

KHNR - Harlan Municipal Airport (4 nm S)
KADU - Audubon County Airport (18 nm E)
KAIO - Atlantic Municipal Airport (19 nm SE)
KDNS - Denison Municipal Airport (21 nm N)
KCBF - Council Bluffs Municipal Airport (30 nm SW)
 
Loc | Ops | Rwys | IFR | FBO | Links
Com | Nav | Svcs | Stats | Notes
Area around IA55 (Myrtue Memorial Hospital Heliport)
 
Road maps at: MapQuest Bing Google
 
Aerial photo
No photo
 
Sectional chart

 
Airport distance calculator
Flying to Myrtue Memorial Hospital Heliport? Find the distance to fly.

From to IA55

Sunrise and sunset
Times for 26-Jan-2020
 Local
(UTC-6)
 Zulu
(UTC)
Morning civil twilight07:1013:10
Sunrise07:4013:40
Sunset17:2823:28
Evening civil twilight17:5823:58

Current date and time
Zulu (UTC)  27-Jan-2020 00:34:08
Local (UTC-6)  26-Jan-2020 18:34:08
 
METAR
KHNR 
4nm S 
270015Z AUTO 18004KT M1/4SM FZFG OVC002 M02/M02 A2993 RMK AO2
KADU 
19nm E 
270015Z AUTO 22005KT 1/4SM FZFG OVC002 M01/M02 A2993 RMK AO2
KAIO 
19nm SE 
270015Z AUTO 24004KT 1/4SM FZFG OVC002 M01/M01 A2993 RMK AO2
KDNS 
19nm N 
270015Z AUTO 00000KT 10SM CLR 00/00 A2992 RMK AO2
TAF
KOMA 
33nm SW 
262148Z 2622/2718 22005KT P6SM SCT100 FM262300 VRB04KT P6SM BKN090 FM270200 30004KT P6SM BKN070 FM270700 32006KT P6SM BKN025 FM271200 35008KT 4SM BR OVC010
NOTAMs
Click for the latest NOTAMs
NOTAMs are issued by the DoD/FAA and will open in a separate window not controlled by AirNav.

 

 
 

Would you like to see your business listed on this page?

 If your business provides an interesting product or service to pilots, flight crews, aircraft, or users of the Myrtue Memorial Hospital Heliport, you should consider listing it here.  To start the listing process, click on the button below
 
Add a business
 

Other Pages about Myrtue Memorial Hospital Heliport

Update a link
 
Copyright © AirNav, LLC. All rights reserved. Privacy Policy  Contact